createdAt,value
2022-10-22T00:01:37.883Z,13.30
2022-10-22T00:04:07.459Z,13.40
2022-10-22T00:06:36.248Z,13.30
2022-10-22T00:09:05.157Z,14.10
2022-10-22T00:11:33.999Z,13.70
2022-10-22T00:14:02.991Z,12.70
2022-10-22T00:16:31.765Z,13.30
2022-10-22T00:19:00.411Z,14.10
2022-10-22T00:21:30.575Z,13.40
2022-10-22T00:23:59.884Z,14.70
2022-10-22T00:26:28.833Z,13.30
2022-10-22T00:28:57.569Z,13.80
2022-10-22T00:31:26.405Z,13.50
2022-10-22T00:33:55.314Z,12.70
2022-10-22T00:36:24.041Z,12.40
2022-10-22T00:38:53.132Z,13.50
2022-10-22T00:41:21.997Z,13.20
2022-10-22T00:44:00.001Z,13.00
2022-10-22T00:46:28.766Z,13.60
2022-10-22T00:48:59.581Z,13.20
2022-10-22T00:51:33.048Z,12.80
2022-10-22T00:54:07.271Z,14.30
2022-10-22T00:56:35.874Z,13.40
2022-10-22T00:59:05.382Z,13.60
2022-10-22T01:01:34.089Z,13.30
2022-10-22T01:04:02.987Z,12.80
2022-10-22T01:06:33.478Z,12.30
2022-10-22T01:09:15.214Z,12.60
2022-10-22T01:11:54.667Z,11.70
2022-10-22T01:14:34.456Z,12.30
2022-10-22T01:17:08.439Z,12.70
2022-10-22T01:19:58.787Z,12.60
2022-10-22T01:22:32.796Z,12.60
2022-10-22T01:25:09.109Z,12.50
2022-10-22T01:27:49.172Z,12.10
2022-10-22T01:30:19.705Z,12.20
2022-10-22T01:32:53.560Z,13.40
2022-10-22T01:35:26.934Z,13.50
2022-10-22T01:37:58.868Z,12.80
2022-10-22T01:40:29.172Z,13.90
2022-10-22T01:43:00.282Z,12.90
2022-10-22T01:45:33.186Z,12.60
2022-10-22T01:48:11.070Z,13.00
2022-10-22T01:50:56.293Z,13.20
2022-10-22T01:53:33.119Z,12.50
2022-10-22T01:56:15.442Z,13.60
2022-10-22T01:58:52.647Z,13.20
2022-10-22T02:01:27.430Z,12.70
2022-10-22T02:06:32.281Z,12.80
2022-10-22T02:09:02.830Z,12.90
2022-10-22T02:11:32.394Z,12.20
2022-10-22T02:14:04.160Z,12.60
2022-10-22T02:16:36.634Z,12.80
2022-10-22T02:19:15.570Z,13.20
2022-10-22T02:21:44.835Z,12.50
2022-10-22T02:24:13.808Z,12.80
2022-10-22T02:26:53.052Z,12.20
2022-10-22T02:29:26.804Z,12.40
2022-10-22T02:31:58.489Z,12.70
2022-10-22T02:34:31.099Z,12.40
2022-10-22T02:37:02.230Z,12.40
2022-10-22T02:39:32.518Z,12.30
2022-10-22T02:42:02.590Z,11.90
2022-10-22T02:44:31.444Z,11.40
2022-10-22T02:47:00.722Z,12.00
2022-10-22T02:49:29.968Z,12.80
2022-10-22T02:51:59.283Z,12.60
2022-10-22T02:54:28.715Z,12.20
2022-10-22T02:56:57.612Z,12.30
2022-10-22T02:59:26.340Z,12.30
2022-10-22T03:01:55.433Z,12.70
2022-10-22T03:04:24.172Z,11.40
2022-10-22T03:06:52.951Z,12.80
2022-10-22T03:09:24.125Z,11.90
2022-10-22T03:11:53.816Z,12.40
2022-10-22T03:14:22.605Z,12.40
2022-10-22T03:16:52.226Z,12.80
2022-10-22T03:19:21.050Z,12.20
2022-10-22T03:21:53.887Z,11.90
2022-10-22T03:24:27.545Z,12.70
2022-10-22T03:27:18.735Z,13.10
2022-10-22T03:30:06.835Z,12.00
2022-10-22T03:32:35.644Z,13.00
2022-10-22T03:35:05.607Z,12.10
2022-10-22T03:37:36.282Z,12.40
2022-10-22T03:40:07.630Z,11.80
2022-10-22T03:42:36.541Z,11.90
2022-10-22T03:45:06.672Z,12.60
2022-10-22T03:47:36.531Z,11.30
2022-10-22T03:50:06.730Z,12.00
2022-10-22T03:52:38.356Z,12.10
2022-10-22T03:55:10.591Z,11.90
2022-10-22T03:57:39.489Z,12.60
2022-10-22T04:00:11.598Z,12.70
2022-10-22T04:02:40.340Z,12.00
2022-10-22T04:05:11.234Z,12.20
2022-10-22T04:07:40.425Z,12.90
2022-10-22T04:10:10.970Z,12.70
2022-10-22T04:12:39.899Z,12.90
2022-10-22T04:15:10.885Z,12.70
2022-10-22T04:17:39.966Z,12.80
2022-10-22T04:20:10.933Z,12.00
2022-10-22T04:22:39.735Z,12.40
2022-10-22T04:25:09.158Z,12.40
2022-10-22T04:27:38.164Z,12.40
2022-10-22T04:30:09.327Z,12.10
2022-10-22T04:32:38.077Z,12.30
2022-10-22T04:35:08.826Z,11.30
2022-10-22T04:37:37.933Z,12.90
2022-10-22T04:40:11.110Z,12.30
2022-10-22T04:42:39.661Z,12.20
2022-10-22T04:45:11.861Z,11.90
2022-10-22T04:47:40.785Z,12.90
2022-10-22T04:50:11.173Z,13.10
2022-10-22T04:52:40.028Z,12.50
2022-10-22T04:55:09.901Z,12.60
2022-10-22T04:57:38.739Z,12.50
2022-10-22T05:00:12.220Z,12.40
2022-10-22T05:02:44.239Z,12.50
2022-10-22T05:05:13.049Z,12.80
2022-10-22T05:07:43.518Z,13.30
2022-10-22T05:10:12.973Z,13.90
2022-10-22T05:12:41.562Z,13.20
2022-10-22T05:15:13.336Z,13.30
2022-10-22T05:17:42.189Z,12.30
2022-10-22T05:20:12.232Z,12.30
2022-10-22T05:22:41.035Z,11.50
2022-10-22T05:25:11.827Z,11.90
2022-10-22T05:27:40.726Z,11.90
2022-10-22T05:30:12.358Z,12.20
2022-10-22T05:32:41.170Z,11.80
2022-10-22T05:35:10.667Z,11.00
2022-10-22T05:37:39.601Z,12.00
2022-10-22T05:40:26.550Z,11.50
2022-10-22T05:42:56.507Z,12.10
2022-10-22T05:45:25.851Z,11.60
2022-10-22T05:47:54.943Z,11.80
2022-10-22T05:50:23.900Z,12.50
2022-10-22T05:52:53.215Z,12.80
2022-10-22T05:55:21.934Z,13.10
2022-10-22T05:57:50.534Z,13.00
2022-10-22T06:00:20.334Z,12.80
2022-10-22T06:02:51.536Z,12.30
2022-10-22T06:05:21.337Z,12.10
2022-10-22T06:07:50.153Z,11.90
2022-10-22T06:10:21.371Z,12.70
2022-10-22T06:12:50.747Z,13.00
2022-10-22T06:15:20.723Z,12.90
2022-10-22T06:17:49.742Z,13.10
2022-10-22T06:20:19.198Z,13.30
2022-10-22T06:22:48.305Z,12.90
2022-10-22T06:25:18.563Z,13.40
2022-10-22T06:27:51.671Z,12.20
2022-10-22T06:30:20.947Z,12.10
2022-10-22T06:32:50.336Z,11.70
2022-10-22T06:35:19.659Z,11.90
2022-10-22T06:37:48.519Z,12.90
2022-10-22T06:40:19.074Z,13.30
2022-10-22T06:42:48.115Z,13.50
2022-10-22T06:45:18.103Z,14.80
2022-10-22T06:47:47.473Z,12.90
2022-10-22T06:50:16.309Z,13.00
2022-10-22T06:52:46.214Z,12.30
2022-10-22T06:55:15.244Z,13.20
2022-10-22T06:57:45.057Z,12.20
2022-10-22T07:00:15.777Z,12.80
2022-10-22T07:02:44.417Z,11.90
2022-10-22T07:05:13.090Z,12.40
2022-10-22T07:07:41.829Z,10.80
2022-10-22T07:10:11.344Z,11.40
2022-10-22T07:12:41.366Z,12.50
2022-10-22T07:15:12.604Z,12.90
2022-10-22T07:17:41.441Z,12.30
2022-10-22T07:20:12.665Z,12.40
2022-10-22T07:22:41.781Z,12.20
2022-10-22T07:25:12.794Z,12.90
2022-10-22T07:27:41.935Z,11.80
2022-10-22T07:30:24.084Z,12.30
2022-10-22T07:32:52.704Z,13.10
2022-10-22T07:35:21.504Z,12.60
2022-10-22T07:37:50.436Z,12.20
2022-10-22T07:40:20.196Z,13.10
2022-10-22T07:42:48.900Z,12.00
2022-10-22T07:45:17.772Z,12.00
2022-10-22T07:47:48.239Z,11.30
2022-10-22T07:50:17.980Z,12.10
2022-10-22T07:52:46.845Z,12.80
2022-10-22T07:55:16.926Z,12.50
2022-10-22T07:57:46.861Z,12.10
2022-10-22T08:00:20.586Z,12.60
2022-10-22T08:02:52.215Z,12.20
2022-10-22T08:05:21.185Z,12.30
2022-10-22T08:07:50.669Z,12.50
2022-10-22T08:10:21.200Z,14.00
2022-10-22T08:12:49.864Z,12.60
2022-10-22T08:15:19.700Z,12.80
2022-10-22T08:17:48.361Z,13.00
2022-10-22T08:20:17.391Z,12.40
2022-10-22T08:22:46.636Z,12.70
2022-10-22T08:25:16.107Z,13.80
2022-10-22T08:27:45.493Z,13.00
2022-10-22T08:30:15.763Z,13.20
2022-10-22T08:32:49.337Z,13.20
2022-10-22T08:35:21.106Z,13.30
2022-10-22T08:37:50.515Z,13.50
2022-10-22T08:40:28.793Z,13.20
2022-10-22T08:43:30.689Z,14.00
2022-10-22T08:46:10.620Z,14.50
2022-10-22T08:48:46.050Z,15.10
2022-10-22T08:51:18.293Z,15.50
2022-10-22T08:54:03.239Z,14.80
2022-10-22T08:56:33.100Z,15.30
2022-10-22T08:59:11.859Z,15.00
2022-10-22T09:01:43.930Z,15.20
2022-10-22T09:04:24.934Z,16.10
2022-10-22T09:06:56.006Z,14.60
2022-10-22T09:09:29.611Z,13.90
2022-10-22T09:12:00.927Z,15.10
2022-10-22T09:14:30.122Z,14.50
2022-10-22T09:17:14.270Z,14.90
2022-10-22T09:19:54.354Z,14.90
2022-10-22T09:25:19.787Z,15.30
2022-10-22T09:27:49.370Z,14.90
2022-10-22T09:30:20.977Z,15.20
2022-10-22T09:32:55.105Z,15.10
2022-10-22T09:35:25.701Z,14.90
2022-10-22T09:37:56.900Z,15.70
2022-10-22T09:40:25.779Z,15.10
2022-10-22T09:42:54.433Z,13.90
2022-10-22T09:45:26.399Z,15.10
2022-10-22T09:48:10.648Z,14.80
2022-10-22T09:50:44.177Z,14.90
2022-10-22T09:53:20.378Z,15.20
2022-10-22T09:55:53.795Z,14.40
2022-10-22T09:58:23.237Z,14.60
2022-10-22T10:00:56.268Z,14.60
2022-10-22T10:03:27.878Z,14.20
2022-10-22T10:06:02.916Z,12.90
2022-10-22T10:08:34.737Z,15.20
2022-10-22T10:11:11.140Z,14.50
2022-10-22T10:13:49.965Z,14.40
2022-10-22T10:16:32.269Z,14.90
2022-10-22T10:19:20.400Z,14.60
2022-10-22T10:22:00.597Z,13.70
2022-10-22T10:24:42.889Z,15.40
2022-10-22T10:27:20.563Z,14.60
2022-10-22T10:30:00.671Z,15.00
2022-10-22T10:32:48.327Z,15.30
2022-10-22T10:35:26.007Z,15.00
2022-10-22T10:38:09.662Z,16.70
2022-10-22T10:40:46.379Z,16.20
2022-10-22T10:43:22.127Z,16.40
2022-10-22T10:46:02.787Z,15.90
2022-10-22T10:48:45.551Z,16.90
2022-10-22T10:51:36.683Z,17.20
2022-10-22T10:54:16.646Z,18.30
2022-10-22T10:56:51.585Z,15.40
2022-10-22T10:59:30.412Z,18.20
2022-10-22T11:02:17.288Z,18.10
2022-10-22T11:05:08.386Z,18.60
2022-10-22T11:07:42.199Z,18.30
2022-10-22T11:10:24.988Z,18.60
2022-10-22T11:13:03.829Z,17.80
2022-10-22T11:15:35.338Z,19.80
2022-10-22T11:18:12.979Z,18.60
2022-10-22T11:21:07.716Z,18.30
2022-10-22T11:23:41.275Z,18.80
2022-10-22T11:26:17.567Z,19.20
2022-10-22T11:28:51.933Z,18.40
2022-10-22T11:31:25.124Z,18.10
2022-10-22T11:34:28.474Z,18.20
2022-10-22T11:36:54.847Z,18.20
2022-10-22T11:39:34.818Z,18.30
2022-10-22T11:42:06.373Z,18.60
2022-10-22T11:44:47.389Z,19.00
2022-10-22T11:47:24.569Z,18.00
2022-10-22T11:50:11.646Z,19.00
2022-10-22T11:52:53.692Z,18.50
2022-10-22T11:55:46.248Z,18.70
2022-10-22T11:58:43.474Z,17.90
2022-10-22T12:01:24.116Z,19.70
2022-10-22T12:04:13.854Z,19.00
2022-10-22T12:06:55.305Z,19.50
2022-10-22T12:09:29.785Z,20.80
2022-10-22T12:12:15.440Z,20.40
2022-10-22T12:14:55.513Z,19.90
2022-10-22T12:17:25.018Z,20.40
2022-10-22T12:20:02.090Z,18.50
2022-10-22T12:22:33.551Z,19.20
2022-10-22T12:25:09.693Z,19.50
2022-10-22T12:27:40.994Z,18.80
2022-10-22T12:30:22.106Z,18.40
2022-10-22T12:32:53.912Z,19.40
2022-10-22T12:35:25.386Z,19.10
2022-10-22T12:37:56.609Z,18.80
2022-10-22T12:40:27.376Z,20.90
2022-10-22T12:42:58.259Z,20.20
2022-10-22T12:45:30.544Z,20.20
2022-10-22T12:48:01.388Z,21.20
2022-10-22T12:50:37.383Z,20.00
2022-10-22T12:53:16.876Z,20.40
2022-10-22T12:56:03.300Z,21.70
2022-10-22T12:58:38.800Z,19.80
2022-10-22T13:01:11.828Z,21.50
2022-10-22T13:03:44.998Z,23.20
2022-10-22T13:06:23.313Z,23.40
2022-10-22T13:09:16.499Z,24.10
2022-10-22T13:11:53.614Z,22.60
2022-10-22T13:14:28.540Z,22.90
2022-10-22T13:17:11.549Z,21.80
2022-10-22T13:19:44.815Z,24.50
2022-10-22T13:22:34.272Z,23.90
2022-10-22T13:25:20.849Z,23.20
2022-10-22T13:27:52.394Z,24.00
2022-10-22T13:30:24.384Z,24.00
2022-10-22T13:32:59.832Z,24.60
2022-10-22T13:35:35.840Z,23.90
2022-10-22T13:38:14.177Z,24.50
2022-10-22T13:40:48.037Z,25.80
2022-10-22T13:43:21.295Z,26.10
2022-10-22T13:45:54.817Z,25.90
2022-10-22T13:48:38.330Z,26.80
2022-10-22T13:51:15.267Z,25.70
2022-10-22T13:53:45.818Z,25.50
2022-10-22T13:56:17.969Z,23.50
2022-10-22T13:58:50.245Z,23.00
2022-10-22T14:01:22.749Z,22.90
2022-10-22T14:03:54.254Z,24.90
2022-10-22T14:06:24.320Z,26.20
2022-10-22T14:08:58.067Z,24.70
2022-10-22T14:11:28.048Z,24.20
2022-10-22T14:13:57.448Z,23.70
2022-10-22T14:16:31.245Z,26.10
2022-10-22T14:19:02.386Z,26.20
2022-10-22T14:21:35.476Z,25.50
2022-10-22T14:24:06.133Z,25.80
2022-10-22T14:26:37.036Z,24.10
2022-10-22T14:29:10.230Z,23.90
2022-10-22T14:34:16.649Z,24.40
2022-10-22T14:36:45.433Z,22.60
2022-10-22T14:39:14.549Z,22.60
2022-10-22T14:41:43.983Z,22.70
2022-10-22T14:44:14.432Z,24.20
2022-10-22T14:46:43.952Z,24.80
2022-10-22T14:49:13.114Z,24.50
2022-10-22T14:51:42.100Z,24.30
2022-10-22T14:54:10.677Z,26.80
2022-10-22T14:56:39.244Z,24.90
2022-10-22T14:59:07.956Z,24.50
2022-10-22T15:01:36.616Z,23.70
2022-10-22T15:04:05.761Z,28.40
2022-10-22T15:06:34.451Z,26.70
2022-10-22T15:09:03.522Z,26.00
2022-10-22T15:11:32.289Z,26.60
2022-10-22T15:14:00.909Z,25.60
2022-10-22T15:16:29.717Z,25.80
2022-10-22T15:18:59.378Z,23.90
2022-10-22T15:21:28.334Z,25.20
2022-10-22T15:23:57.347Z,24.70
2022-10-22T15:26:26.098Z,25.90
2022-10-22T15:28:55.213Z,26.40
2022-10-22T15:31:45.249Z,24.50
2022-10-22T15:34:14.449Z,25.40
2022-10-22T15:36:43.317Z,26.30
2022-10-22T15:39:12.170Z,26.30
2022-10-22T15:41:41.297Z,26.80
2022-10-22T15:44:17.429Z,25.20
2022-10-22T15:46:46.175Z,27.10
2022-10-22T15:49:15.341Z,26.20
2022-10-22T15:51:44.544Z,26.40
2022-10-22T15:54:16.613Z,26.60
2022-10-22T15:56:45.369Z,30.20
2022-10-22T15:59:15.577Z,31.50
2022-10-22T16:01:44.901Z,27.50
2022-10-22T16:04:14.004Z,29.00
2022-10-22T16:06:45.548Z,27.80
2022-10-22T16:09:17.085Z,28.80
2022-10-22T16:11:46.517Z,28.10
2022-10-22T16:14:19.467Z,28.50
2022-10-22T16:16:50.596Z,27.40
2022-10-22T16:19:20.954Z,27.40
2022-10-22T16:21:52.019Z,29.70
2022-10-22T16:24:22.224Z,31.30
2022-10-22T16:26:52.677Z,32.40
2022-10-22T16:29:21.718Z,30.10
2022-10-22T16:31:51.012Z,29.30
2022-10-22T16:34:19.733Z,28.40
2022-10-22T16:36:48.730Z,29.70
2022-10-22T16:39:17.504Z,32.90
2022-10-22T16:41:46.827Z,33.00
2022-10-22T16:44:15.896Z,34.20
2022-10-22T16:46:45.030Z,32.00
2022-10-22T16:49:13.928Z,34.50
2022-10-22T16:51:42.615Z,32.40
2022-10-22T16:54:14.183Z,40.80
2022-10-22T16:56:43.469Z,28.50
2022-10-22T16:59:12.334Z,31.30
2022-10-22T17:01:42.362Z,31.10
2022-10-22T17:04:11.306Z,30.90
2022-10-22T17:06:40.845Z,30.80
2022-10-22T17:09:10.957Z,29.30
2022-10-22T17:11:42.674Z,30.00
2022-10-22T17:14:13.964Z,33.80
2022-10-22T17:16:43.392Z,35.60
2022-10-22T17:19:15.675Z,30.80
2022-10-22T17:21:45.041Z,30.20
2022-10-22T17:24:14.376Z,29.60
2022-10-22T17:26:44.977Z,30.30
2022-10-22T17:29:14.670Z,29.40
2022-10-22T17:31:45.105Z,30.30
2022-10-22T17:34:17.627Z,29.10
2022-10-22T17:36:46.950Z,29.20
2022-10-22T17:39:19.580Z,30.00
2022-10-22T17:41:48.930Z,27.80
2022-10-22T17:44:18.351Z,28.90
2022-10-22T17:46:52.443Z,28.40
2022-10-22T17:49:22.168Z,26.40
2022-10-22T17:51:51.087Z,27.80
2022-10-22T17:54:20.221Z,29.00
2022-10-22T17:56:49.132Z,29.10
2022-10-22T17:59:18.680Z,30.00
2022-10-22T18:01:48.177Z,28.10
2022-10-22T18:04:18.878Z,29.40
2022-10-22T18:06:48.051Z,31.40
2022-10-22T18:09:19.613Z,33.80
2022-10-22T18:11:49.333Z,30.80
2022-10-22T18:14:20.991Z,33.90
2022-10-22T18:16:51.398Z,30.80
2022-10-22T18:19:23.353Z,31.70
2022-10-22T18:21:52.575Z,34.00
2022-10-22T18:24:22.241Z,32.30
2022-10-22T18:26:51.862Z,32.30
2022-10-22T18:29:21.930Z,34.90
2022-10-22T18:31:52.078Z,32.20
2022-10-22T18:34:23.783Z,33.10
2022-10-22T18:36:54.543Z,34.50
2022-10-22T18:39:24.306Z,34.10
2022-10-22T18:41:54.025Z,33.90
2022-10-22T18:44:25.269Z,33.50
2022-10-22T18:46:55.636Z,32.90
2022-10-22T18:49:25.572Z,32.20
2022-10-22T18:51:55.786Z,32.30
2022-10-22T18:54:25.012Z,29.70
2022-10-22T18:57:02.504Z,28.90
2022-10-22T18:59:33.422Z,28.60
2022-10-22T19:02:11.533Z,28.80
2022-10-22T19:04:41.035Z,26.90
2022-10-22T19:07:10.597Z,25.70
2022-10-22T19:09:41.080Z,28.70
2022-10-22T19:12:10.616Z,27.20
2022-10-22T19:14:39.401Z,26.70
2022-10-22T19:17:08.665Z,25.70
2022-10-22T19:19:39.099Z,25.80
2022-10-22T19:22:08.201Z,25.20
2022-10-22T19:24:37.349Z,25.50
2022-10-22T19:27:06.174Z,24.70
2022-10-22T19:29:35.872Z,25.30
2022-10-22T19:32:05.425Z,22.60
2022-10-22T19:34:35.991Z,22.80
2022-10-22T19:37:05.385Z,22.50
2022-10-22T19:39:34.623Z,21.30
2022-10-22T19:42:04.253Z,22.00
2022-10-22T19:44:33.566Z,21.50
2022-10-22T19:47:02.388Z,20.70
2022-10-22T19:49:31.330Z,21.10
2022-10-22T19:52:00.403Z,22.00
2022-10-22T19:54:32.878Z,22.90
2022-10-22T19:59:32.295Z,22.50
2022-10-22T20:02:01.176Z,22.50
2022-10-22T20:04:30.516Z,22.30
2022-10-22T20:06:59.728Z,25.20
2022-10-22T20:09:28.502Z,24.20
2022-10-22T20:11:57.641Z,24.30
2022-10-22T20:14:27.142Z,23.90
2022-10-22T20:16:56.271Z,23.60
2022-10-22T20:19:28.879Z,23.70
2022-10-22T20:24:31.827Z,25.00
2022-10-22T20:27:03.312Z,25.40
2022-10-22T20:29:32.354Z,23.90
2022-10-22T20:32:03.311Z,25.10
2022-10-22T20:34:35.272Z,27.20
2022-10-22T20:37:07.513Z,26.80
2022-10-22T20:39:36.846Z,27.10
2022-10-22T20:42:07.143Z,27.60
2022-10-22T20:44:36.695Z,26.40
2022-10-22T20:47:05.502Z,26.40
2022-10-22T20:49:35.149Z,26.50
2022-10-22T20:52:04.867Z,26.90
2022-10-22T20:54:34.695Z,26.60
2022-10-22T20:57:04.989Z,28.30
2022-10-22T20:59:34.614Z,26.50
2022-10-22T21:02:04.652Z,27.00
2022-10-22T21:04:34.732Z,29.20
2022-10-22T21:07:03.501Z,27.30
2022-10-22T21:09:34.305Z,27.20
2022-10-22T21:12:03.548Z,27.60
2022-10-22T21:14:32.808Z,27.00
2022-10-22T21:17:01.856Z,26.40
2022-10-22T21:19:31.550Z,26.30
2022-10-22T21:22:00.428Z,26.40
2022-10-22T21:24:29.187Z,26.20
2022-10-22T21:26:58.333Z,26.10
2022-10-22T21:29:27.121Z,26.70
2022-10-22T21:31:55.873Z,25.40
2022-10-22T21:34:24.764Z,25.60
2022-10-22T21:36:53.555Z,25.50
2022-10-22T21:39:22.329Z,24.60
2022-10-22T21:41:51.400Z,25.40
2022-10-22T21:44:20.035Z,24.00
2022-10-22T21:46:49.546Z,24.20
2022-10-22T21:49:18.133Z,23.70
2022-10-22T21:51:46.991Z,24.00
2022-10-22T21:54:15.796Z,24.60
2022-10-22T21:56:44.646Z,26.20
2022-10-22T21:59:13.531Z,25.60
2022-10-22T22:01:42.207Z,25.30
2022-10-22T22:04:11.211Z,24.60
2022-10-22T22:06:39.929Z,23.70
2022-10-22T22:09:08.839Z,24.40
2022-10-22T22:11:37.701Z,24.00
2022-10-22T22:14:06.301Z,23.90
2022-10-22T22:16:36.187Z,25.20
2022-10-22T22:19:07.066Z,22.50
2022-10-22T22:21:38.757Z,23.50
2022-10-22T22:24:11.009Z,23.70
2022-10-22T22:26:41.341Z,22.70
2022-10-22T22:29:11.551Z,22.10
2022-10-22T22:31:40.492Z,22.80
2022-10-22T22:34:12.448Z,23.40
2022-10-22T22:36:42.602Z,22.20
2022-10-22T22:39:13.814Z,21.80
2022-10-22T22:41:43.183Z,23.00
2022-10-22T22:44:12.182Z,23.60
2022-10-22T22:46:41.021Z,22.60
2022-10-22T22:49:10.035Z,23.00
2022-10-22T22:51:38.725Z,22.50
2022-10-22T22:54:07.649Z,22.70
2022-10-22T22:56:36.719Z,22.70
2022-10-22T22:59:06.264Z,23.30
2022-10-22T23:01:37.233Z,22.90
2022-10-22T23:04:07.465Z,24.20
2022-10-22T23:06:37.500Z,22.50
2022-10-22T23:09:08.740Z,21.30
2022-10-22T23:11:38.557Z,21.50
2022-10-22T23:14:10.641Z,22.50
2022-10-22T23:16:42.427Z,21.70
2022-10-22T23:19:11.733Z,22.40
2022-10-22T23:21:44.856Z,23.90
2022-10-22T23:24:15.927Z,22.80
2022-10-22T23:26:48.172Z,22.20
2022-10-22T23:29:19.623Z,24.40
2022-10-22T23:31:52.901Z,23.20
2022-10-22T23:34:24.165Z,24.70
2022-10-22T23:36:54.893Z,25.10
2022-10-22T23:39:26.032Z,26.20
2022-10-22T23:41:54.992Z,26.90
2022-10-22T23:44:25.014Z,27.30
2022-10-22T23:46:54.749Z,26.40
2022-10-22T23:49:23.503Z,25.60
2022-10-22T23:51:52.372Z,25.90
2022-10-22T23:54:21.012Z,28.70
2022-10-22T23:56:50.156Z,27.80
2022-10-22T23:59:19.044Z,28.00
